Time;durP1;ratioP1;P1;durP2;ratioP2;P2;SDS_P1;SDS_P2;PMS_P1;PMS_P2;Temp;Humidity;BMP_temperature;BMP_pressure;BME280_temperature;BME280_humidity;BME280_pressure;Samples;Min_cycle;Max_cycle;Signal;HPM_P1;HPM_P2
2023/03/13 00:01:18;;;;;;;;;;;10.50;59.60;;;;;;5035097;28;19916;-72
2023/03/13 00:03:44;;;;;;;;;;;10.60;60.50;;;;;;5035687;28;20293;-70
2023/03/13 00:06:09;;;;;;;;;;;10.70;60.30;;;;;;5035368;28;19913;-70
2023/03/13 00:08:35;;;;;;;;;;;10.70;60.60;;;;;;5035483;28;19917;-71
2023/03/13 00:11:01;;;;;;;;;;;10.80;61.90;;;;;;5033917;28;19952;-71
2023/03/13 00:13:27;;;;;;;;;;;10.70;60.80;;;;;;5035037;28;19909;-70
2023/03/13 00:15:58;;;;;;;;;;;10.70;61.50;;;;;;5034992;28;20290;-72
2023/03/13 00:18:24;;;;;;;;;;;10.70;60.90;;;;;;5034984;28;19916;-70
2023/03/13 00:20:56;;;;;;;;;;;10.70;62.10;;;;;;5034897;28;20366;-71
2023/03/13 00:23:22;;;;;;;;;;;10.60;60.20;;;;;;5035267;28;19917;-71
2023/03/13 00:25:47;;;;;;;;;;;10.60;60.80;;;;;;5034940;28;20370;-70
2023/03/13 00:28:12;;;;;;;;;;;10.70;60.20;;;;;;5034577;28;20011;-71
2023/03/13 00:30:38;;;;;;;;;;;10.60;61.30;;;;;;5035734;28;19914;-71
2023/03/13 00:33:03;;;;;;;;;;;10.60;61.20;;;;;;5033757;28;20437;-71
2023/03/13 00:35:29;;;;;;;;;;;10.60;60.20;;;;;;5035108;28;19913;-70
2023/03/13 00:37:54;;;;;;;;;;;10.60;61.30;;;;;;5034755;28;19916;-72
2023/03/13 00:40:20;;;;;;;;;;;10.60;62.10;;;;;;5035196;28;19972;-71
2023/03/13 00:42:45;;;;;;;;;;;10.60;62.30;;;;;;5034779;28;19909;-72
2023/03/13 00:45:10;;;;;;;;;;;10.60;63.80;;;;;;5034901;28;19913;-72
2023/03/13 00:47:36;;;;;;;;;;;10.50;64.80;;;;;;5034771;28;19992;-70
2023/03/13 00:50:01;;;;;;;;;;;10.50;64.80;;;;;;5034472;28;20286;-72
2023/03/13 00:52:27;;;;;;;;;;;10.50;66.90;;;;;;5034362;28;19909;-71
2023/03/13 00:54:52;;;;;;;;;;;10.50;67.80;;;;;;5035339;28;20388;-71
2023/03/13 00:57:18;;;;;;;;;;;10.40;69.20;;;;;;5035401;28;19909;-72
2023/03/13 00:59:43;;;;;;;;;;;10.40;71.20;;;;;;5033440;28;19913;-71
2023/03/13 01:02:09;;;;;;;;;;;10.40;72.20;;;;;;5034447;28;20012;-70
2023/03/13 01:04:34;;;;;;;;;;;10.40;73.60;;;;;;5035433;28;20281;-71
2023/03/13 01:06:59;;;;;;;;;;;10.40;72.50;;;;;;5036100;28;19917;-71
2023/03/13 01:09:25;;;;;;;;;;;10.50;74.40;;;;;;5035122;28;19909;-71
2023/03/13 01:11:50;;;;;;;;;;;10.50;75.20;;;;;;5034736;28;19909;-72
2023/03/13 01:14:17;;;;;;;;;;;10.50;77.20;;;;;;5034270;28;19913;-72
2023/03/13 01:16:43;;;;;;;;;;;10.50;79.40;;;;;;5034269;28;19913;-72
2023/03/13 01:19:09;;;;;;;;;;;10.40;81.60;;;;;;5034100;28;20421;-71
2023/03/13 01:21:35;;;;;;;;;;;10.40;83.10;;;;;;5033922;28;19944;-71
2023/03/13 01:24:01;;;;;;;;;;;10.40;84.20;;;;;;5033748;28;20391;-72
2023/03/13 01:26:26;;;;;;;;;;;10.40;84.50;;;;;;5034359;28;20016;-71
2023/03/13 01:28:52;;;;;;;;;;;10.40;85.90;;;;;;5034367;28;19960;-70
2023/03/13 01:31:19;;;;;;;;;;;10.30;87.10;;;;;;5035319;28;20012;-70
2023/03/13 01:33:45;;;;;;;;;;;10.40;86.40;;;;;;5037064;28;19996;-72
2023/03/13 01:36:11;;;;;;;;;;;10.40;86.60;;;;;;5037201;28;19909;-72
2023/03/13 01:38:37;;;;;;;;;;;10.40;87.60;;;;;;5037541;28;19953;-73
2023/03/13 01:41:03;;;;;;;;;;;10.40;88.60;;;;;;5039489;28;19967;-72
2023/03/13 01:43:30;;;;;;;;;;;10.40;90.00;;;;;;5045287;28;19969;-70
2023/03/13 01:45:56;;;;;;;;;;;10.40;90.00;;;;;;5052005;28;19917;-69
2023/03/13 01:48:25;;;;;;;;;;;10.50;89.80;;;;;;5050705;28;19923;-71
2023/03/13 01:50:51;;;;;;;;;;;10.60;90.00;;;;;;5035798;28;19932;-70
2023/03/13 01:53:17;;;;;;;;;;;10.70;90.20;;;;;;5033395;28;19915;-71
2023/03/13 01:55:42;;;;;;;;;;;10.70;92.20;;;;;;5033253;28;19917;-70
2023/03/13 01:58:08;;;;;;;;;;;10.70;93.30;;;;;;5033286;28;19910;-71
2023/03/13 02:00:34;;;;;;;;;;;10.70;94.70;;;;;;5033832;28;19955;-72
2023/03/13 02:03:03;;;;;;;;;;;10.80;96.00;;;;;;5033850;28;19975;-71
2023/03/13 02:05:29;;;;;;;;;;;10.80;98.40;;;;;;5033103;28;19920;-72
2023/03/13 02:08:10;;;;;;;;;;;10.70;99.90;;;;;;5033202;28;20421;-70
2023/03/13 02:10:42;;;;;;;;;;;10.70;99.90;;;;;;5032995;28;19909;-71
2023/03/13 02:13:12;;;;;;;;;;;10.70;99.90;;;;;;5032948;28;20008;-72
2023/03/13 02:15:39;;;;;;;;;;;10.70;99.90;;;;;;5033062;28;19910;-70
2023/03/13 02:18:05;;;;;;;;;;;10.70;99.90;;;;;;5033052;28;19909;-70
2023/03/13 02:20:30;;;;;;;;;;;10.60;99.90;;;;;;5032870;28;20394;-71
2023/03/13 02:22:58;;;;;;;;;;;10.60;99.90;;;;;;5032889;28;19971;-71
2023/03/13 02:25:24;;;;;;;;;;;10.60;99.90;;;;;;5033094;28;20019;-71
2023/03/13 02:27:51;;;;;;;;;;;10.70;99.90;;;;;;5033228;28;20011;-71
2023/03/13 02:30:17;;;;;;;;;;;10.70;99.90;;;;;;5033089;28;20059;-71
2023/03/13 02:32:44;;;;;;;;;;;10.70;99.90;;;;;;5031702;28;20342;-72
2023/03/13 02:35:11;;;;;;;;;;;10.80;99.90;;;;;;5033211;28;20382;-72
2023/03/13 02:37:37;;;;;;;;;;;10.80;99.90;;;;;;5031667;28;19963;-70
2023/03/13 02:40:08;;;;;;;;;;;10.80;99.90;;;;;;5032659;28;19916;-72
2023/03/13 02:42:33;;;;;;;;;;;10.80;99.90;;;;;;5033293;28;19909;-72
2023/03/13 02:44:59;;;;;;;;;;;10.80;99.90;;;;;;5033134;28;19959;-71
2023/03/13 02:47:25;;;;;;;;;;;10.80;99.90;;;;;;5033697;28;19996;-71
2023/03/13 02:49:50;;;;;;;;;;;10.80;99.90;;;;;;5032337;28;20011;-72
2023/03/13 02:52:18;;;;;;;;;;;10.80;99.90;;;;;;5032357;28;19909;-71
2023/03/13 02:54:46;;;;;;;;;;;10.80;99.90;;;;;;5032451;28;19909;-72
2023/03/13 02:57:11;;;;;;;;;;;10.80;99.90;;;;;;5032439;28;20302;-72
2023/03/13 02:59:37;;;;;;;;;;;10.90;99.90;;;;;;5032367;28;19909;-71
2023/03/13 03:02:03;;;;;;;;;;;10.90;99.90;;;;;;5030829;28;19916;-72
2023/03/13 03:04:28;;;;;;;;;;;11.00;99.90;;;;;;5032488;28;19909;-72
2023/03/13 03:06:54;;;;;;;;;;;11.00;99.90;;;;;;5033217;28;20389;-72
2023/03/13 03:09:22;;;;;;;;;;;11.00;99.90;;;;;;5033848;28;19909;-72
2023/03/13 03:11:47;;;;;;;;;;;11.00;99.90;;;;;;5032229;28;20314;-72
2023/03/13 03:14:13;;;;;;;;;;;11.00;99.90;;;;;;5032296;28;19924;-72
2023/03/13 03:16:39;;;;;;;;;;;11.00;99.90;;;;;;5032360;28;19909;-71
2023/03/13 03:19:07;;;;;;;;;;;11.10;99.90;;;;;;5031898;28;19951;-72
2023/03/13 03:21:33;;;;;;;;;;;11.00;99.90;;;;;;5032045;28;19909;-71
2023/03/13 03:23:59;;;;;;;;;;;11.10;99.90;;;;;;5031915;28;19916;-70
2023/03/13 03:26:24;;;;;;;;;;;11.10;99.90;;;;;;5032172;28;19917;-71
2023/03/13 03:28:50;;;;;;;;;;;11.20;99.90;;;;;;5031975;28;20278;-71
2023/03/13 03:31:15;;;;;;;;;;;11.10;99.90;;;;;;5032212;28;19963;-71
2023/03/13 03:33:41;;;;;;;;;;;11.10;99.90;;;;;;5036144;28;20273;-70
2023/03/13 03:36:08;;;;;;;;;;;11.10;99.90;;;;;;5034522;28;19910;-70
2023/03/13 03:38:34;;;;;;;;;;;11.10;99.90;;;;;;5035754;28;19910;-71
2023/03/13 03:40:59;;;;;;;;;;;11.10;99.90;;;;;;5035562;28;20376;-70
2023/03/13 03:43:25;;;;;;;;;;;11.20;99.90;;;;;;5035502;28;19909;-71
2023/03/13 03:45:50;;;;;;;;;;;11.20;99.90;;;;;;5035457;28;20004;-70
2023/03/13 03:48:16;;;;;;;;;;;11.40;99.90;;;;;;5035465;28;20550;-72
2023/03/13 03:50:41;;;;;;;;;;;11.30;99.90;;;;;;5035461;28;19956;-71
2023/03/13 03:53:07;;;;;;;;;;;11.30;99.90;;;;;;5035416;28;19916;-71
2023/03/13 03:55:32;;;;;;;;;;;11.30;99.90;;;;;;5035384;28;20011;-72
2023/03/13 03:57:58;;;;;;;;;;;11.40;99.90;;;;;;5035179;28;19951;-72
2023/03/13 04:00:24;;;;;;;;;;;11.40;99.90;;;;;;5035268;28;19917;-71
2023/03/13 04:02:49;;;;;;;;;;;11.50;99.90;;;;;;5034908;28;19914;-71
2023/03/13 04:05:15;;;;;;;;;;;11.50;99.90;;;;;;5035210;28;19917;-72
2023/03/13 04:07:40;;;;;;;;;;;11.50;99.90;;;;;;5038062;28;19913;-71
2023/03/13 04:10:06;;;;;;;;;;;11.50;99.90;;;;;;5038091;28;19909;-70
2023/03/13 04:12:32;;;;;;;;;;;11.60;99.90;;;;;;5038868;28;20011;-71
2023/03/13 04:14:57;;;;;;;;;;;11.60;99.90;;;;;;5038532;28;19941;-72
2023/03/13 04:17:23;;;;;;;;;;;11.70;99.90;;;;;;5038999;28;19963;-72
2023/03/13 04:19:48;;;;;;;;;;;11.80;99.90;;;;;;5038398;28;19916;-71
2023/03/13 04:22:13;;;;;;;;;;;11.80;99.90;;;;;;5034033;28;19957;-71
2023/03/13 04:24:39;;;;;;;;;;;11.90;99.90;;;;;;5034820;28;19912;-71
2023/03/13 04:27:05;;;;;;;;;;;12.00;99.90;;;;;;5034717;28;19913;-73
2023/03/13 04:29:31;;;;;;;;;;;12.00;99.90;;;;;;5034549;28;19955;-72
2023/03/13 04:31:57;;;;;;;;;;;12.00;99.90;;;;;;5034252;28;19963;-72
2023/03/13 04:34:22;;;;;;;;;;;12.10;99.90;;;;;;5034495;28;19913;-72
2023/03/13 04:36:48;;;;;;;;;;;12.10;99.90;;;;;;5034428;28;19909;-72
2023/03/13 04:39:13;;;;;;;;;;;12.10;99.90;;;;;;5034261;28;20401;-72
2023/03/13 04:41:38;;;;;;;;;;;12.20;99.90;;;;;;5034315;28;19995;-72
2023/03/13 04:44:04;;;;;;;;;;;12.20;99.90;;;;;;5032993;28;19909;-70
2023/03/13 04:46:29;;;;;;;;;;;12.30;99.90;;;;;;5034312;28;19917;-71
2023/03/13 04:48:55;;;;;;;;;;;12.40;99.90;;;;;;5034187;28;19909;-72
2023/03/13 04:51:20;;;;;;;;;;;12.50;99.90;;;;;;5033975;28;19909;-72
2023/03/13 04:53:46;;;;;;;;;;;12.50;99.90;;;;;;5034309;28;19963;-71
2023/03/13 04:56:15;;;;;;;;;;;12.50;99.80;;;;;;5033833;28;20258;-71
2023/03/13 04:58:41;;;;;;;;;;;12.60;98.60;;;;;;5033972;28;19909;-72
2023/03/13 05:01:06;;;;;;;;;;;12.60;98.10;;;;;;5033854;28;20002;-71
2023/03/13 05:03:32;;;;;;;;;;;12.70;97.30;;;;;;5033989;28;19909;-72
2023/03/13 05:05:57;;;;;;;;;;;12.70;97.70;;;;;;5033007;28;20310;-72
2023/03/13 05:08:23;;;;;;;;;;;12.80;96.60;;;;;;5033670;28;19967;-71
2023/03/13 05:10:48;;;;;;;;;;;12.80;96.40;;;;;;5033964;28;19917;-72
2023/03/13 05:13:14;;;;;;;;;;;12.90;95.00;;;;;;5033473;28;19909;-72
2023/03/13 05:15:39;;;;;;;;;;;12.90;94.80;;;;;;5034168;28;20007;-71
2023/03/13 05:18:05;;;;;;;;;;;13.00;94.10;;;;;;5034120;28;19909;-71
2023/03/13 05:20:30;;;;;;;;;;;13.00;94.10;;;;;;5034369;28;20024;-71
2023/03/13 05:22:56;;;;;;;;;;;13.00;94.10;;;;;;5032328;28;19909;-72
2023/03/13 05:25:21;;;;;;;;;;;13.00;94.10;;;;;;5033267;28;20350;-72
2023/03/13 05:27:46;;;;;;;;;;;13.10;94.40;;;;;;5033132;28;19967;-72
2023/03/13 05:30:12;;;;;;;;;;;13.10;93.70;;;;;;5033761;28;19909;-71
2023/03/13 05:32:37;;;;;;;;;;;13.10;93.50;;;;;;5033385;28;19909;-72
2023/03/13 05:35:03;;;;;;;;;;;13.10;93.60;;;;;;5033885;28;19913;-72
2023/03/13 05:37:29;;;;;;;;;;;13.10;93.60;;;;;;5034431;28;19966;-72
2023/03/13 05:39:54;;;;;;;;;;;13.20;92.70;;;;;;5033926;28;19999;-71
2023/03/13 05:42:19;;;;;;;;;;;13.10;93.30;;;;;;5034038;28;19920;-72
2023/03/13 05:44:45;;;;;;;;;;;13.20;92.90;;;;;;5036216;28;19909;-70
2023/03/13 05:47:10;;;;;;;;;;;13.20;92.60;;;;;;5053241;28;19936;-70
2023/03/13 05:49:36;;;;;;;;;;;13.20;92.20;;;;;;5047803;28;19916;-70
2023/03/13 05:52:01;;;;;;;;;;;13.20;92.10;;;;;;5037852;28;20007;-71
2023/03/13 05:54:27;;;;;;;;;;;13.20;92.10;;;;;;5032718;28;20347;-71
2023/03/13 05:56:52;;;;;;;;;;;13.20;91.60;;;;;;5033321;28;19980;-71
2023/03/13 05:59:17;;;;;;;;;;;13.20;91.50;;;;;;5032744;28;19955;-73
2023/03/13 06:01:43;;;;;;;;;;;13.30;91.00;;;;;;5032903;28;19909;-71
2023/03/13 06:04:08;;;;;;;;;;;13.30;90.50;;;;;;5033052;28;20333;-70
2023/03/13 06:06:40;;;;;;;;;;;13.20;90.20;;;;;;5034414;28;19913;-70
2023/03/13 06:09:06;;;;;;;;;;;13.30;89.60;;;;;;5033500;28;19909;-72
2023/03/13 06:11:31;;;;;;;;;;;13.30;88.60;;;;;;5032305;28;20290;-74
2023/03/13 06:13:57;;;;;;;;;;;13.30;87.80;;;;;;5033930;28;20355;-71
2023/03/13 06:16:22;;;;;;;;;;;13.40;87.10;;;;;;5046164;28;19917;-71
2023/03/13 06:18:48;;;;;;;;;;;13.40;86.60;;;;;;5044485;28;19909;-72
2023/03/13 06:21:13;;;;;;;;;;;13.50;85.50;;;;;;5035954;28;19913;-71
2023/03/13 06:23:38;;;;;;;;;;;13.50;84.90;;;;;;5038051;28;19913;-71
2023/03/13 06:26:04;;;;;;;;;;;13.60;84.10;;;;;;5036864;28;19913;-72
2023/03/13 06:28:30;;;;;;;;;;;13.60;84.40;;;;;;5038238;28;19921;-73
2023/03/13 06:30:59;;;;;;;;;;;13.60;82.10;;;;;;5034023;28;19920;-71
2023/03/13 06:33:25;;;;;;;;;;;13.60;82.00;;;;;;5032711;28;19913;-72
2023/03/13 06:35:50;;;;;;;;;;;13.70;81.80;;;;;;5032750;28;20397;-72
2023/03/13 06:38:16;;;;;;;;;;;13.70;80.40;;;;;;5032988;28;19909;-72
2023/03/13 06:40:41;;;;;;;;;;;13.70;80.60;;;;;;5032000;28;19913;-72
2023/03/13 06:43:07;;;;;;;;;;;13.80;79.40;;;;;;5032145;28;19909;-71
2023/03/13 06:45:33;;;;;;;;;;;13.80;78.90;;;;;;5032097;28;19921;-72
2023/03/13 06:47:59;;;;;;;;;;;13.80;78.90;;;;;;5032444;28;20377;-72
2023/03/13 06:50:24;;;;;;;;;;;13.80;79.20;;;;;;5031931;28;19909;-72
2023/03/13 06:52:50;;;;;;;;;;;13.80;79.10;;;;;;5032404;28;20267;-72
2023/03/13 06:55:15;;;;;;;;;;;13.80;77.80;;;;;;5032299;28;19959;-71
2023/03/13 06:57:41;;;;;;;;;;;13.90;77.10;;;;;;5032529;28;19913;-72
2023/03/13 07:00:07;;;;;;;;;;;13.90;76.40;;;;;;5032245;28;20378;-72
2023/03/13 07:02:32;;;;;;;;;;;14.00;75.90;;;;;;5032431;28;20000;-71
2023/03/13 07:04:58;;;;;;;;;;;14.00;75.60;;;;;;5032197;28;19964;-70
2023/03/13 07:07:24;;;;;;;;;;;14.00;74.40;;;;;;5034680;28;19909;-71
2023/03/13 07:09:49;;;;;;;;;;;14.00;74.20;;;;;;5036349;28;19932;-71
2023/03/13 07:12:16;;;;;;;;;;;14.10;73.60;;;;;;5038879;28;19999;-70
2023/03/13 07:14:41;;;;;;;;;;;14.10;72.30;;;;;;5040857;28;19921;-71
2023/03/13 07:17:07;;;;;;;;;;;14.10;71.60;;;;;;5035026;28;19913;-72
2023/03/13 07:19:32;;;;;;;;;;;14.20;70.50;;;;;;5036047;28;19909;-71
2023/03/13 07:21:57;;;;;;;;;;;14.20;69.80;;;;;;5035844;28;19936;-72
2023/03/13 07:24:23;;;;;;;;;;;14.30;69.40;;;;;;5036010;28;19913;-72
2023/03/13 07:26:49;;;;;;;;;;;14.20;69.20;;;;;;5035495;28;19913;-71
2023/03/13 07:29:14;;;;;;;;;;;14.30;68.60;;;;;;5035263;28;19928;-72
2023/03/13 07:31:39;;;;;;;;;;;14.30;67.60;;;;;;5035418;28;19913;-71
2023/03/13 07:34:05;;;;;;;;;;;14.30;66.90;;;;;;5035383;28;19909;-71
2023/03/13 07:36:30;;;;;;;;;;;14.40;66.40;;;;;;5035861;28;19909;-71
2023/03/13 07:38:56;;;;;;;;;;;14.40;66.10;;;;;;5035314;28;19909;-71
2023/03/13 07:41:22;;;;;;;;;;;14.40;64.50;;;;;;5035213;28;19913;-71
2023/03/13 07:43:47;;;;;;;;;;;14.40;63.50;;;;;;5035360;28;20008;-74
2023/03/13 07:46:14;;;;;;;;;;;14.50;62.60;;;;;;5035006;28;20008;-71
2023/03/13 07:48:40;;;;;;;;;;;14.50;62.30;;;;;;5035359;28;20007;-72
2023/03/13 07:51:09;;;;;;;;;;;14.50;61.80;;;;;;5035326;28;19909;-71
2023/03/13 07:53:35;;;;;;;;;;;14.60;60.10;;;;;;5035858;28;19913;-71
2023/03/13 07:56:09;;;;;;;;;;;14.50;60.70;;;;;;5035306;28;20274;-72
2023/03/13 07:58:35;;;;;;;;;;;14.50;60.30;;;;;;5035147;28;19916;-71
2023/03/13 08:01:06;;;;;;;;;;;14.50;59.60;;;;;;5034945;28;19992;-71
2023/03/13 08:03:31;;;;;;;;;;;14.50;59.10;;;;;;5034528;28;19913;-72
2023/03/13 08:06:01;;;;;;;;;;;14.50;58.50;;;;;;5034212;28;20393;-72
2023/03/13 08:08:27;;;;;;;;;;;14.50;58.30;;;;;;5030536;28;20374;-71
2023/03/13 08:10:52;;;;;;;;;;;14.50;58.40;;;;;;5015503;28;20355;-71
2023/03/13 08:13:18;;;;;;;;;;;14.50;57.00;;;;;;5016225;28;19921;-72
2023/03/13 08:15:43;;;;;;;;;;;14.50;58.30;;;;;;5035141;28;19921;-72
2023/03/13 08:18:09;;;;;;;;;;;14.60;57.00;;;;;;5034769;28;19909;-71
2023/03/13 08:20:34;;;;;;;;;;;14.60;57.30;;;;;;5050211;28;19917;-71
2023/03/13 08:23:00;;;;;;;;;;;14.70;56.70;;;;;;5016913;28;19913;-72
2023/03/13 08:25:25;;;;;;;;;;;14.70;57.40;;;;;;5032244;28;19921;-71
2023/03/13 08:27:51;;;;;;;;;;;14.70;56.60;;;;;;5032452;28;19913;-71
2023/03/13 08:30:16;;;;;;;;;;;14.70;56.20;;;;;;5031764;28;20474;-72
2023/03/13 08:32:42;;;;;;;;;;;14.70;56.00;;;;;;5032347;28;19984;-72
2023/03/13 08:35:09;;;;;;;;;;;14.80;55.30;;;;;;5031754;28;20383;-71
2023/03/13 08:37:34;;;;;;;;;;;14.90;55.10;;;;;;5032393;28;19992;-71
2023/03/13 08:40:00;;;;;;;;;;;14.90;54.40;;;;;;5024770;28;19920;-71
2023/03/13 08:42:26;;;;;;;;;;;14.90;54.20;;;;;;5031854;28;19924;-72
2023/03/13 08:44:51;;;;;;;;;;;14.90;55.00;;;;;;5033253;28;19952;-71
2023/03/13 08:47:19;;;;;;;;;;;14.90;54.90;;;;;;5033599;28;19976;-71
2023/03/13 08:49:45;;;;;;;;;;;14.90;55.30;;;;;;5033436;28;19940;-72
2023/03/13 08:52:10;;;;;;;;;;;14.90;55.70;;;;;;5032108;28;19920;-72
2023/03/13 08:54:36;;;;;;;;;;;14.90;56.40;;;;;;5032940;28;19917;-70
2023/03/13 08:57:01;;;;;;;;;;;14.80;57.10;;;;;;5034153;28;19928;-72
2023/03/13 08:59:27;;;;;;;;;;;14.80;57.70;;;;;;5049119;28;20388;-72
2023/03/13 09:01:52;;;;;;;;;;;14.90;57.90;;;;;;5032416;28;19975;-71
2023/03/13 09:04:18;;;;;;;;;;;14.80;58.80;;;;;;5031368;28;20283;-72
2023/03/13 09:06:43;;;;;;;;;;;14.90;57.70;;;;;;5032553;28;19924;-73
2023/03/13 09:09:09;;;;;;;;;;;15.00;57.50;;;;;;5032528;28;19924;-72
2023/03/13 09:11:36;;;;;;;;;;;15.20;56.90;;;;;;5030435;28;20003;-72
2023/03/13 09:14:03;;;;;;;;;;;15.30;56.70;;;;;;5030539;28;19913;-71
2023/03/13 09:16:29;;;;;;;;;;;15.30;56.60;;;;;;5027181;28;19953;-72
2023/03/13 09:18:55;;;;;;;;;;;15.40;56.60;;;;;;5023706;28;20039;-71
2023/03/13 09:21:26;;;;;;;;;;;15.40;56.40;;;;;;5034110;28;19967;-73
2023/03/13 09:23:52;;;;;;;;;;;15.40;57.00;;;;;;5031725;28;19913;-71
2023/03/13 09:26:18;;;;;;;;;;;15.50;57.40;;;;;;5012240;28;19936;-71
2023/03/13 09:28:43;;;;;;;;;;;15.60;56.40;;;;;;5014547;28;19936;-71
2023/03/13 09:31:13;;;;;;;;;;;15.70;57.30;;;;;;5024768;28;19913;-71
2023/03/13 09:33:39;;;;;;;;;;;15.60;56.80;;;;;;5024561;28;20454;-70
2023/03/13 09:36:05;;;;;;;;;;;15.50;57.40;;;;;;5025417;28;19960;-70
2023/03/13 09:38:31;;;;;;;;;;;15.60;57.00;;;;;;5031049;28;19967;-70
2023/03/13 09:41:00;;;;;;;;;;;15.70;57.20;;;;;;5029284;28;19914;-72
2023/03/13 09:43:26;;;;;;;;;;;15.70;56.30;;;;;;5046616;28;19920;-70
2023/03/13 09:45:53;;;;;;;;;;;15.60;56.80;;;;;;5025850;28;19925;-72
2023/03/13 09:48:18;;;;;;;;;;;15.50;59.30;;;;;;5023732;28;20434;-71
2023/03/13 09:50:53;;;;;;;;;;;15.60;60.30;;;;;;5047281;28;19920;-70
2023/03/13 09:53:23;;;;;;;;;;;15.50;60.50;;;;;;5047188;28;19916;-71
2023/03/13 09:55:50;;;;;;;;;;;15.50;60.50;;;;;;5033817;28;19917;-71
2023/03/13 09:58:18;;;;;;;;;;;15.70;58.30;;;;;;5027104;28;19917;-71
2023/03/13 10:00:50;;;;;;;;;;;15.90;57.60;;;;;;5015638;28;19914;-71
2023/03/13 10:03:27;;;;;;;;;;;16.20;54.80;;;;;;5024843;28;20399;-71
2023/03/13 10:05:54;;;;;;;;;;;16.40;51.70;;;;;;5022258;28;20465;-71
2023/03/13 10:08:28;;;;;;;;;;;16.60;50.40;;;;;;5032518;28;19995;-71
2023/03/13 10:11:06;;;;;;;;;;;16.70;49.10;;;;;;5033426;28;20004;-73
2023/03/13 10:13:35;;;;;;;;;;;16.80;47.60;;;;;;5033886;28;19920;-72
2023/03/13 10:16:02;;;;;;;;;;;16.70;48.70;;;;;;5023922;28;19909;-73
2023/03/13 10:18:27;;;;;;;;;;;16.60;49.40;;;;;;5013646;28;19909;-71
2023/03/13 10:20:56;;;;;;;;;;;16.40;50.10;;;;;;5016140;28;20287;-71
2023/03/13 10:23:22;;;;;;;;;;;16.40;50.80;;;;;;5033476;28;20297;-71
2023/03/13 10:25:47;;;;;;;;;;;16.30;50.80;;;;;;5032827;28;19913;-71
2023/03/13 10:28:14;;;;;;;;;;;16.40;50.80;;;;;;5032310;28;20235;-71
2023/03/13 10:30:43;;;;;;;;;;;16.40;49.90;;;;;;5032794;28;19914;-72
2023/03/13 10:33:11;;;;;;;;;;;16.60;49.50;;;;;;5032668;28;20337;-72
2023/03/13 10:35:38;;;;;;;;;;;16.70;48.80;;;;;;5033390;28;19916;-71
2023/03/13 10:38:07;;;;;;;;;;;16.70;47.50;;;;;;5048342;28;19917;-72
2023/03/13 10:40:33;;;;;;;;;;;16.60;47.20;;;;;;5032981;28;19915;-71
2023/03/13 10:43:01;;;;;;;;;;;16.70;46.20;;;;;;5033344;28;20370;-70
2023/03/13 10:45:30;;;;;;;;;;;16.80;44.60;;;;;;5033362;28;20255;-72
2023/03/13 10:47:58;;;;;;;;;;;16.80;43.20;;;;;;5032478;28;19909;-71
2023/03/13 10:50:25;;;;;;;;;;;17.00;41.80;;;;;;5032751;28;19918;-72
2023/03/13 10:52:50;;;;;;;;;;;17.10;41.90;;;;;;5032532;28;19909;-72
2023/03/13 10:55:21;;;;;;;;;;;17.10;41.20;;;;;;5032240;28;19920;-71
2023/03/13 10:57:52;;;;;;;;;;;17.20;39.80;;;;;;5032685;28;19917;-71
2023/03/13 11:00:27;;;;;;;;;;;17.40;39.10;;;;;;5047759;28;20298;-72
2023/03/13 11:02:53;;;;;;;;;;;17.50;38.50;;;;;;5032349;28;20389;-71
2023/03/13 11:05:24;;;;;;;;;;;17.50;37.80;;;;;;5031941;28;19963;-70
2023/03/13 11:07:51;;;;;;;;;;;17.60;37.50;;;;;;5031922;28;19916;-71
2023/03/13 11:10:17;;;;;;;;;;;17.60;37.40;;;;;;5032188;28;20327;-71
2023/03/13 11:12:43;;;;;;;;;;;17.70;37.20;;;;;;5032136;28;19920;-70
2023/03/13 11:15:13;;;;;;;;;;;17.70;36.90;;;;;;5032219;28;19952;-71
2023/03/13 11:17:39;;;;;;;;;;;17.80;36.20;;;;;;5032231;28;19909;-72
2023/03/13 11:20:05;;;;;;;;;;;17.80;35.70;;;;;;5032696;28;19955;-73
2023/03/13 11:22:33;;;;;;;;;;;18.00;35.20;;;;;;5032470;28;20122;-73
2023/03/13 11:25:07;;;;;;;;;;;18.00;34.60;;;;;;5030903;28;19916;-71
2023/03/13 11:27:38;;;;;;;;;;;17.80;33.90;;;;;;5032019;28;19909;-71
2023/03/13 11:30:04;;;;;;;;;;;17.80;34.90;;;;;;5032090;28;20034;-71
2023/03/13 11:32:29;;;;;;;;;;;18.00;34.30;;;;;;5031903;28;20010;-71
2023/03/13 11:34:59;;;;;;;;;;;18.10;34.20;;;;;;5031774;28;19909;-69
2023/03/13 11:37:27;;;;;;;;;;;18.30;33.10;;;;;;5030822;28;19909;-72
2023/03/13 11:40:11;;;;;;;;;;;18.30;32.60;;;;;;5035833;28;19933;-70
2023/03/13 11:42:42;;;;;;;;;;;18.20;32.90;;;;;;5031275;28;19972;-71
2023/03/13 11:45:16;;;;;;;;;;;18.10;32.90;;;;;;5031640;28;20355;-71
2023/03/13 11:47:51;;;;;;;;;;;18.20;33.00;;;;;;5031687;28;20224;-71
2023/03/13 11:50:35;;;;;;;;;;;18.40;32.60;;;;;;5031827;28;19913;-72
2023/03/13 11:53:21;;;;;;;;;;;18.60;31.00;;;;;;5032788;28;19909;-73
2023/03/13 11:55:58;;;;;;;;;;;18.60;30.30;;;;;;5035111;28;19913;-71
2023/03/13 11:58:34;;;;;;;;;;;18.60;31.00;;;;;;5050406;28;19920;-71
2023/03/13 12:01:15;;;;;;;;;;;18.70;29.90;;;;;;5050402;28;19944;-71
2023/03/13 12:03:49;;;;;;;;;;;18.80;29.20;;;;;;5048478;28;19955;-71
2023/03/13 12:06:27;;;;;;;;;;;18.80;30.00;;;;;;5035382;28;19913;-71
2023/03/13 12:08:56;;;;;;;;;;;18.80;28.90;;;;;;5034993;28;20350;-72
2023/03/13 12:11:26;;;;;;;;;;;18.50;29.10;;;;;;5035193;28;19917;-72
2023/03/13 12:13:56;;;;;;;;;;;18.40;29.60;;;;;;5050728;28;19909;-71
2023/03/13 12:16:45;;;;;;;;;;;18.30;29.90;;;;;;5034750;28;19913;-71
2023/03/13 12:19:13;;;;;;;;;;;18.10;29.50;;;;;;5029361;28;19909;-72
2023/03/13 12:21:51;;;;;;;;;;;18.20;31.10;;;;;;5034882;28;20008;-71
2023/03/13 12:24:34;;;;;;;;;;;18.30;30.40;;;;;;5034608;28;20000;-71
2023/03/13 12:27:10;;;;;;;;;;;18.20;30.30;;;;;;5034088;28;19936;-73
2023/03/13 12:29:47;;;;;;;;;;;18.10;31.40;;;;;;5034562;28;19996;-72
2023/03/13 12:32:25;;;;;;;;;;;18.00;32.50;;;;;;5034173;28;19909;-70
2023/03/13 12:34:55;;;;;;;;;;;18.10;32.40;;;;;;5034517;28;19920;-71
2023/03/13 12:37:24;;;;;;;;;;;18.30;31.70;;;;;;5034774;28;19963;-72
2023/03/13 12:39:56;;;;;;;;;;;18.40;31.00;;;;;;5034054;28;20314;-71
2023/03/13 12:42:39;;;;;;;;;;;18.60;30.10;;;;;;5033949;28;19913;-72
2023/03/13 12:45:06;;;;;;;;;;;18.80;28.80;;;;;;5034422;28;19916;-72
2023/03/13 12:47:33;;;;;;;;;;;18.70;29.20;;;;;;5033846;28;19966;-71
2023/03/13 12:50:14;;;;;;;;;;;18.70;29.20;;;;;;5034590;28;19955;-71
2023/03/13 12:52:46;;;;;;;;;;;18.60;29.70;;;;;;5034143;28;20027;-72
2023/03/13 12:55:26;;;;;;;;;;;18.60;29.50;;;;;;5035516;28;20007;-72
2023/03/13 12:58:09;;;;;;;;;;;18.70;29.50;;;;;;5035840;28;19913;-73
2023/03/13 13:00:36;;;;;;;;;;;18.80;29.50;;;;;;5037253;28;19963;-71
2023/03/13 13:03:05;;;;;;;;;;;18.70;29.90;;;;;;5038100;28;20317;-73
2023/03/13 13:05:30;;;;;;;;;;;18.60;29.50;;;;;;5035351;28;20344;-71
2023/03/13 13:07:56;;;;;;;;;;;18.60;29.00;;;;;;5034509;28;19972;-72
2023/03/13 13:10:25;;;;;;;;;;;18.40;30.00;;;;;;5035460;28;20290;-71
2023/03/13 13:13:09;;;;;;;;;;;18.20;30.60;;;;;;5038694;28;19924;-73
2023/03/13 13:15:34;;;;;;;;;;;18.00;30.90;;;;;;5034593;28;19910;-72
2023/03/13 13:18:00;;;;;;;;;;;17.90;31.20;;;;;;5033794;28;19916;-72
2023/03/13 13:20:43;;;;;;;;;;;17.80;32.40;;;;;;5033603;28;19936;-70
2023/03/13 13:23:26;;;;;;;;;;;18.00;32.90;;;;;;5034542;28;19931;-72
2023/03/13 13:25:53;;;;;;;;;;;18.40;30.60;;;;;;5033209;28;20071;-71
2023/03/13 13:28:20;;;;;;;;;;;18.60;29.60;;;;;;5033147;28;20026;-71
2023/03/13 13:30:49;;;;;;;;;;;18.70;28.90;;;;;;5033196;28;19909;-71
2023/03/13 13:33:18;;;;;;;;;;;18.60;27.20;;;;;;5032893;28;19910;-71
2023/03/13 13:35:45;;;;;;;;;;;18.40;27.90;;;;;;5033603;28;20343;-72
2023/03/13 13:38:16;;;;;;;;;;;18.30;29.30;;;;;;5033174;28;19963;-73
2023/03/13 13:40:58;;;;;;;;;;;18.30;29.80;;;;;;5033594;28;20386;-72
2023/03/13 13:43:24;;;;;;;;;;;18.50;29.70;;;;;;5033589;28;19949;-71
2023/03/13 13:46:02;;;;;;;;;;;18.70;28.80;;;;;;5033158;28;20282;-71
2023/03/13 13:48:36;;;;;;;;;;;18.80;27.80;;;;;;5034085;28;19909;-72
2023/03/13 13:51:09;;;;;;;;;;;18.90;27.70;;;;;;5037399;28;19917;-71
2023/03/13 13:53:45;;;;;;;;;;;19.00;27.20;;;;;;5038757;28;19910;-71
2023/03/13 13:56:31;;;;;;;;;;;19.00;27.40;;;;;;5039343;28;19909;-72
2023/03/13 13:58:58;;;;;;;;;;;18.80;28.10;;;;;;5038330;28;19959;-72
2023/03/13 14:01:24;;;;;;;;;;;18.50;28.60;;;;;;5034127;28;19913;-72
2023/03/13 14:03:50;;;;;;;;;;;18.30;29.70;;;;;;5047704;28;19916;-73
2023/03/13 14:06:18;;;;;;;;;;;18.10;30.10;;;;;;5032874;28;19913;-71
2023/03/13 14:08:44;;;;;;;;;;;17.90;30.50;;;;;;5032635;28;19999;-72
2023/03/13 14:11:13;;;;;;;;;;;17.90;31.00;;;;;;5032732;28;19909;-72
2023/03/13 14:13:38;;;;;;;;;;;18.00;30.70;;;;;;5032717;28;20313;-71
2023/03/13 14:16:23;;;;;;;;;;;18.20;30.20;;;;;;5032224;28;19917;-72
2023/03/13 14:18:49;;;;;;;;;;;18.30;29.90;;;;;;5032808;28;19948;-71